sensor_id;sensor_type;location;lat;lon;timestamp;temperature;humidity
15983;DHT22;14442;50.196;8.096;2023-04-24T00:02:04;22.40;47.30
15983;DHT22;14442;50.196;8.096;2023-04-24T00:04:33;22.40;47.30
15983;DHT22;14442;50.196;8.096;2023-04-24T00:07:00;22.40;47.30
15983;DHT22;14442;50.196;8.096;2023-04-24T00:09:27;22.40;47.30
15983;DHT22;14442;50.196;8.096;2023-04-24T00:11:53;22.40;47.30
15983;DHT22;14442;50.196;8.096;2023-04-24T00:14:21;22.40;47.30
15983;DHT22;14442;50.196;8.096;2023-04-24T00:16:48;22.40;47.20
15983;DHT22;14442;50.196;8.096;2023-04-24T00:19:14;22.40;47.10
15983;DHT22;14442;50.196;8.096;2023-04-24T00:21:43;22.40;47.20
15983;DHT22;14442;50.196;8.096;2023-04-24T00:24:09;22.40;47.10
15983;DHT22;14442;50.196;8.096;2023-04-24T00:26:36;22.40;47.20
15983;DHT22;14442;50.196;8.096;2023-04-24T00:29:03;22.40;47.10
15983;DHT22;14442;50.196;8.096;2023-04-24T00:31:29;22.40;47.20
15983;DHT22;14442;50.196;8.096;2023-04-24T00:33:56;22.30;47.10
15983;DHT22;14442;50.196;8.096;2023-04-24T00:36:23;22.40;47.10
15983;DHT22;14442;50.196;8.096;2023-04-24T00:38:51;22.40;47.10
15983;DHT22;14442;50.196;8.096;2023-04-24T00:41:18;22.40;47.10
15983;DHT22;14442;50.196;8.096;2023-04-24T00:43:46;22.30;47.00
15983;DHT22;14442;50.196;8.096;2023-04-24T00:46:13;22.30;47.00
15983;DHT22;14442;50.196;8.096;2023-04-24T00:48:40;22.30;47.00
15983;DHT22;14442;50.196;8.096;2023-04-24T00:51:06;22.30;47.00
15983;DHT22;14442;50.196;8.096;2023-04-24T00:53:33;22.30;47.00
15983;DHT22;14442;50.196;8.096;2023-04-24T00:56:01;22.30;47.00
15983;DHT22;14442;50.196;8.096;2023-04-24T00:58:28;22.30;47.00
15983;DHT22;14442;50.196;8.096;2023-04-24T01:00:56;22.30;47.00
15983;DHT22;14442;50.196;8.096;2023-04-24T01:03:26;22.30;47.00
15983;DHT22;14442;50.196;8.096;2023-04-24T01:05:54;22.30;47.00
15983;DHT22;14442;50.196;8.096;2023-04-24T01:08:23;22.30;47.00
15983;DHT22;14442;50.196;8.096;2023-04-24T01:10:52;22.30;47.00
15983;DHT22;14442;50.196;8.096;2023-04-24T01:13:20;22.30;47.00
15983;DHT22;14442;50.196;8.096;2023-04-24T01:15:47;22.30;47.00
15983;DHT22;14442;50.196;8.096;2023-04-24T01:18:14;22.30;47.00
15983;DHT22;14442;50.196;8.096;2023-04-24T01:20:42;22.30;47.10
15983;DHT22;14442;50.196;8.096;2023-04-24T01:23:11;22.30;47.10
15983;DHT22;14442;50.196;8.096;2023-04-24T01:25:37;22.30;47.20
15983;DHT22;14442;50.196;8.096;2023-04-24T01:28:04;22.20;47.00
15983;DHT22;14442;50.196;8.096;2023-04-24T01:30:32;22.20;47.10
15983;DHT22;14442;50.196;8.096;2023-04-24T01:32:59;22.20;47.00
15983;DHT22;14442;50.196;8.096;2023-04-24T01:35:26;22.20;47.00
15983;DHT22;14442;50.196;8.096;2023-04-24T01:37:53;22.20;47.00
15983;DHT22;14442;50.196;8.096;2023-04-24T01:40:21;22.10;46.90
15983;DHT22;14442;50.196;8.096;2023-04-24T01:42:48;22.20;47.10
15983;DHT22;14442;50.196;8.096;2023-04-24T01:45:14;22.10;47.00
15983;DHT22;14442;50.196;8.096;2023-04-24T01:47:41;22.20;47.10
15983;DHT22;14442;50.196;8.096;2023-04-24T01:50:09;22.20;47.20
15983;DHT22;14442;50.196;8.096;2023-04-24T01:52:36;22.10;47.10
15983;DHT22;14442;50.196;8.096;2023-04-24T01:55:03;22.10;47.10
15983;DHT22;14442;50.196;8.096;2023-04-24T01:57:31;22.10;47.10
15983;DHT22;14442;50.196;8.096;2023-04-24T01:59:59;22.10;47.20
15983;DHT22;14442;50.196;8.096;2023-04-24T02:02:25;22.10;47.10
15983;DHT22;14442;50.196;8.096;2023-04-24T02:04:54;22.10;47.10
15983;DHT22;14442;50.196;8.096;2023-04-24T02:07:20;22.20;47.30
15983;DHT22;14442;50.196;8.096;2023-04-24T02:09:47;22.10;47.20
15983;DHT22;14442;50.196;8.096;2023-04-24T02:12:14;22.10;47.10
15983;DHT22;14442;50.196;8.096;2023-04-24T02:14:42;22.00;47.10
15983;DHT22;14442;50.196;8.096;2023-04-24T02:17:09;22.00;47.10
15983;DHT22;14442;50.196;8.096;2023-04-24T02:19:38;22.10;47.20
15983;DHT22;14442;50.196;8.096;2023-04-24T02:22:05;22.00;47.10
15983;DHT22;14442;50.196;8.096;2023-04-24T02:24:32;22.00;47.00
15983;DHT22;14442;50.196;8.096;2023-04-24T02:26:58;22.00;47.10
15983;DHT22;14442;50.196;8.096;2023-04-24T02:29:25;22.00;47.10
15983;DHT22;14442;50.196;8.096;2023-04-24T02:31:53;22.00;47.10
15983;DHT22;14442;50.196;8.096;2023-04-24T02:34:20;22.00;47.10
15983;DHT22;14442;50.196;8.096;2023-04-24T02:36:46;22.00;47.10
15983;DHT22;14442;50.196;8.096;2023-04-24T02:39:13;22.00;47.10
15983;DHT22;14442;50.196;8.096;2023-04-24T02:41:41;22.00;47.00
15983;DHT22;14442;50.196;8.096;2023-04-24T02:44:08;22.00;47.10
15983;DHT22;14442;50.196;8.096;2023-04-24T02:46:35;22.00;47.00
15983;DHT22;14442;50.196;8.096;2023-04-24T02:49:03;22.00;47.10
15983;DHT22;14442;50.196;8.096;2023-04-24T02:51:29;21.90;47.00
15983;DHT22;14442;50.196;8.096;2023-04-24T02:53:56;21.90;47.00
15983;DHT22;14442;50.196;8.096;2023-04-24T02:56:23;22.00;47.10
15983;DHT22;14442;50.196;8.096;2023-04-24T02:58:49;22.00;47.00
15983;DHT22;14442;50.196;8.096;2023-04-24T03:01:16;22.00;47.10
15983;DHT22;14442;50.196;8.096;2023-04-24T03:03:43;22.00;47.10
15983;DHT22;14442;50.196;8.096;2023-04-24T03:06:11;22.00;47.00
15983;DHT22;14442;50.196;8.096;2023-04-24T03:08:37;22.00;47.00
15983;DHT22;14442;50.196;8.096;2023-04-24T03:11:04;21.90;46.90
15983;DHT22;14442;50.196;8.096;2023-04-24T03:13:31;21.90;46.90
15983;DHT22;14442;50.196;8.096;2023-04-24T03:15:57;22.00;47.00
15983;DHT22;14442;50.196;8.096;2023-04-24T03:18:24;21.90;46.90
15983;DHT22;14442;50.196;8.096;2023-04-24T03:20:51;22.00;47.00
15983;DHT22;14442;50.196;8.096;2023-04-24T03:23:19;21.90;46.90
15983;DHT22;14442;50.196;8.096;2023-04-24T03:25:46;21.90;46.80
15983;DHT22;14442;50.196;8.096;2023-04-24T03:28:13;21.90;46.90
15983;DHT22;14442;50.196;8.096;2023-04-24T03:30:40;21.90;46.80
15983;DHT22;14442;50.196;8.096;2023-04-24T03:33:07;21.90;46.80
15983;DHT22;14442;50.196;8.096;2023-04-24T03:35:33;21.90;46.90
15983;DHT22;14442;50.196;8.096;2023-04-24T03:38:01;21.90;46.80
15983;DHT22;14442;50.196;8.096;2023-04-24T03:40:31;21.90;46.80
15983;DHT22;14442;50.196;8.096;2023-04-24T03:42:59;21.90;46.80
15983;DHT22;14442;50.196;8.096;2023-04-24T03:45:25;21.90;46.80
15983;DHT22;14442;50.196;8.096;2023-04-24T03:47:52;21.90;46.80
15983;DHT22;14442;50.196;8.096;2023-04-24T03:50:18;21.90;46.80
15983;DHT22;14442;50.196;8.096;2023-04-24T03:52:45;21.90;46.80
15983;DHT22;14442;50.196;8.096;2023-04-24T03:55:12;21.90;46.80
15983;DHT22;14442;50.196;8.096;2023-04-24T03:57:40;21.90;46.80
15983;DHT22;14442;50.196;8.096;2023-04-24T04:00:08;21.90;46.80
15983;DHT22;14442;50.196;8.096;2023-04-24T04:02:35;21.80;46.80
15983;DHT22;14442;50.196;8.096;2023-04-24T04:05:02;21.90;46.80
15983;DHT22;14442;50.196;8.096;2023-04-24T04:07:29;21.80;46.70
15983;DHT22;14442;50.196;8.096;2023-04-24T04:09:56;21.80;46.70
15983;DHT22;14442;50.196;8.096;2023-04-24T04:12:22;21.90;46.80
15983;DHT22;14442;50.196;8.096;2023-04-24T04:14:50;21.80;46.70
15983;DHT22;14442;50.196;8.096;2023-04-24T04:17:17;21.80;46.70
15983;DHT22;14442;50.196;8.096;2023-04-24T04:19:44;21.80;47.40
15983;DHT22;14442;50.196;8.096;2023-04-24T04:22:10;21.80;46.70
15983;DHT22;14442;50.196;8.096;2023-04-24T04:24:37;21.80;46.70
15983;DHT22;14442;50.196;8.096;2023-04-24T04:27:06;21.80;46.70
15983;DHT22;14442;50.196;8.096;2023-04-24T04:29:33;21.70;46.60
15983;DHT22;14442;50.196;8.096;2023-04-24T04:32:02;21.80;46.70
15983;DHT22;14442;50.196;8.096;2023-04-24T04:34:29;21.80;46.70
15983;DHT22;14442;50.196;8.096;2023-04-24T04:36:57;21.70;46.60
15983;DHT22;14442;50.196;8.096;2023-04-24T04:39:24;21.70;46.60
15983;DHT22;14442;50.196;8.096;2023-04-24T04:41:53;21.70;46.60
15983;DHT22;14442;50.196;8.096;2023-04-24T04:44:20;21.70;46.60
15983;DHT22;14442;50.196;8.096;2023-04-24T04:46:47;21.70;46.70
15983;DHT22;14442;50.196;8.096;2023-04-24T04:49:15;21.70;46.60
15983;DHT22;14442;50.196;8.096;2023-04-24T04:51:42;21.70;46.60
15983;DHT22;14442;50.196;8.096;2023-04-24T04:54:08;21.70;46.60
15983;DHT22;14442;50.196;8.096;2023-04-24T04:56:35;21.70;46.60
15983;DHT22;14442;50.196;8.096;2023-04-24T04:59:02;21.70;46.60
15983;DHT22;14442;50.196;8.096;2023-04-24T05:01:28;21.70;46.60
15983;DHT22;14442;50.196;8.096;2023-04-24T05:03:55;21.70;46.60
15983;DHT22;14442;50.196;8.096;2023-04-24T05:06:23;21.70;46.60
15983;DHT22;14442;50.196;8.096;2023-04-24T05:08:51;21.70;46.50
15983;DHT22;14442;50.196;8.096;2023-04-24T05:11:22;21.70;46.60
15983;DHT22;14442;50.196;8.096;2023-04-24T05:13:49;21.70;46.50
15983;DHT22;14442;50.196;8.096;2023-04-24T05:16:15;21.60;46.40
15983;DHT22;14442;50.196;8.096;2023-04-24T05:18:42;21.70;46.50
15983;DHT22;14442;50.196;8.096;2023-04-24T05:21:09;21.70;46.50
15983;DHT22;14442;50.196;8.096;2023-04-24T05:23:37;21.70;46.50
15983;DHT22;14442;50.196;8.096;2023-04-24T05:26:03;21.70;46.60
15983;DHT22;14442;50.196;8.096;2023-04-24T05:28:30;21.60;46.40
15983;DHT22;14442;50.196;8.096;2023-04-24T05:30:57;21.70;46.50
15983;DHT22;14442;50.196;8.096;2023-04-24T05:33:24;21.60;46.40
15983;DHT22;14442;50.196;8.096;2023-04-24T05:35:51;21.60;46.40
15983;DHT22;14442;50.196;8.096;2023-04-24T05:38:18;21.60;46.50
15983;DHT22;14442;50.196;8.096;2023-04-24T05:40:46;21.60;46.40
15983;DHT22;14442;50.196;8.096;2023-04-24T05:43:13;21.60;46.40
15983;DHT22;14442;50.196;8.096;2023-04-24T05:45:40;21.60;46.40
15983;DHT22;14442;50.196;8.096;2023-04-24T05:48:06;21.60;46.40
15983;DHT22;14442;50.196;8.096;2023-04-24T05:50:33;21.60;46.50
15983;DHT22;14442;50.196;8.096;2023-04-24T05:53:00;21.60;46.40
15983;DHT22;14442;50.196;8.096;2023-04-24T05:55:27;21.60;46.30
15983;DHT22;14442;50.196;8.096;2023-04-24T05:57:55;21.60;46.40
15983;DHT22;14442;50.196;8.096;2023-04-24T06:00:23;21.60;46.40
15983;DHT22;14442;50.196;8.096;2023-04-24T06:02:50;21.60;46.40
15983;DHT22;14442;50.196;8.096;2023-04-24T06:05:17;21.60;46.40
15983;DHT22;14442;50.196;8.096;2023-04-24T06:07:44;21.60;46.40
15983;DHT22;14442;50.196;8.096;2023-04-24T06:10:11;21.60;46.30
15983;DHT22;14442;50.196;8.096;2023-04-24T06:12:38;21.60;46.40
15983;DHT22;14442;50.196;8.096;2023-04-24T06:15:07;21.60;46.30
15983;DHT22;14442;50.196;8.096;2023-04-24T06:17:34;21.60;46.40
15983;DHT22;14442;50.196;8.096;2023-04-24T06:20:00;21.60;46.30
15983;DHT22;14442;50.196;8.096;2023-04-24T06:22:29;21.60;46.30
15983;DHT22;14442;50.196;8.096;2023-04-24T06:24:55;21.60;46.30
15983;DHT22;14442;50.196;8.096;2023-04-24T06:27:22;21.60;47.00
15983;DHT22;14442;50.196;8.096;2023-04-24T06:29:49;21.60;46.30
15983;DHT22;14442;50.196;8.096;2023-04-24T06:32:21;21.60;46.30
15983;DHT22;14442;50.196;8.096;2023-04-24T06:34:48;21.60;46.30
15983;DHT22;14442;50.196;8.096;2023-04-24T06:37:14;21.60;46.20
15983;DHT22;14442;50.196;8.096;2023-04-24T06:39:41;21.60;46.30
15983;DHT22;14442;50.196;8.096;2023-04-24T06:42:08;21.60;46.20
15983;DHT22;14442;50.196;8.096;2023-04-24T06:44:35;21.60;46.30
15983;DHT22;14442;50.196;8.096;2023-04-24T06:47:06;21.60;46.30
15983;DHT22;14442;50.196;8.096;2023-04-24T06:49:34;21.60;46.30
15983;DHT22;14442;50.196;8.096;2023-04-24T06:52:01;21.60;46.30
15983;DHT22;14442;50.196;8.096;2023-04-24T06:54:28;21.60;46.20
15983;DHT22;14442;50.196;8.096;2023-04-24T06:56:54;21.60;46.20
15983;DHT22;14442;50.196;8.096;2023-04-24T06:59:22;21.60;46.20
15983;DHT22;14442;50.196;8.096;2023-04-24T07:01:49;21.60;46.20
15983;DHT22;14442;50.196;8.096;2023-04-24T07:04:16;21.60;46.20
15983;DHT22;14442;50.196;8.096;2023-04-24T07:06:45;21.60;46.10
15983;DHT22;14442;50.196;8.096;2023-04-24T07:09:12;21.60;46.20
15983;DHT22;14442;50.196;8.096;2023-04-24T07:11:41;21.50;46.00
15983;DHT22;14442;50.196;8.096;2023-04-24T07:14:10;21.60;46.20
15983;DHT22;14442;50.196;8.096;2023-04-24T07:16:37;21.60;46.20
15983;DHT22;14442;50.196;8.096;2023-04-24T07:19:04;21.60;46.10
15983;DHT22;14442;50.196;8.096;2023-04-24T07:21:31;21.60;46.10
15983;DHT22;14442;50.196;8.096;2023-04-24T07:23:59;21.60;46.10
15983;DHT22;14442;50.196;8.096;2023-04-24T07:26:26;21.60;46.20
15983;DHT22;14442;50.196;8.096;2023-04-24T07:28:53;21.70;46.30
15983;DHT22;14442;50.196;8.096;2023-04-24T07:31:20;21.60;46.30
15983;DHT22;14442;50.196;8.096;2023-04-24T07:33:47;21.70;46.90
15983;DHT22;14442;50.196;8.096;2023-04-24T07:36:14;21.80;47.90
15983;DHT22;14442;50.196;8.096;2023-04-24T07:38:44;21.80;47.40
15983;DHT22;14442;50.196;8.096;2023-04-24T07:41:12;21.70;47.10
15983;DHT22;14442;50.196;8.096;2023-04-24T07:43:39;21.70;47.10
15983;DHT22;14442;50.196;8.096;2023-04-24T07:46:05;21.60;47.00
15983;DHT22;14442;50.196;8.096;2023-04-24T07:48:32;21.70;47.10
15983;DHT22;14442;50.196;8.096;2023-04-24T07:50:59;21.60;46.90
15983;DHT22;14442;50.196;8.096;2023-04-24T07:53:26;21.60;46.80
15983;DHT22;14442;50.196;8.096;2023-04-24T07:55:54;21.60;46.80
15983;DHT22;14442;50.196;8.096;2023-04-24T07:58:22;21.60;47.10
15983;DHT22;14442;50.196;8.096;2023-04-24T08:00:49;21.70;47.10
15983;DHT22;14442;50.196;8.096;2023-04-24T08:03:15;21.70;47.30
15983;DHT22;14442;50.196;8.096;2023-04-24T08:05:44;21.80;47.40
15983;DHT22;14442;50.196;8.096;2023-04-24T08:08:11;22.00;47.50
15983;DHT22;14442;50.196;8.096;2023-04-24T08:10:38;22.10;47.50
15983;DHT22;14442;50.196;8.096;2023-04-24T08:13:05;22.10;47.40
15983;DHT22;14442;50.196;8.096;2023-04-24T08:15:33;22.20;47.30
15983;DHT22;14442;50.196;8.096;2023-04-24T08:17:59;22.30;47.30
15983;DHT22;14442;50.196;8.096;2023-04-24T08:20:26;22.40;47.50
15983;DHT22;14442;50.196;8.096;2023-04-24T08:22:53;22.40;47.60
15983;DHT22;14442;50.196;8.096;2023-04-24T08:25:20;22.40;47.70
15983;DHT22;14442;50.196;8.096;2023-04-24T08:27:48;22.50;47.70
15983;DHT22;14442;50.196;8.096;2023-04-24T08:30:15;22.50;47.70
15983;DHT22;14442;50.196;8.096;2023-04-24T08:32:43;22.50;47.60
15983;DHT22;14442;50.196;8.096;2023-04-24T08:35:10;22.50;47.70
15983;DHT22;14442;50.196;8.096;2023-04-24T08:37:36;22.50;47.60
15983;DHT22;14442;50.196;8.096;2023-04-24T08:40:06;22.50;47.50
15983;DHT22;14442;50.196;8.096;2023-04-24T08:42:37;22.50;47.40
15983;DHT22;14442;50.196;8.096;2023-04-24T08:45:05;22.50;47.30
15983;DHT22;14442;50.196;8.096;2023-04-24T08:47:33;22.50;47.10
15983;DHT22;14442;50.196;8.096;2023-04-24T08:50:02;22.50;47.00
15983;DHT22;14442;50.196;8.096;2023-04-24T08:52:32;22.60;47.00
15983;DHT22;14442;50.196;8.096;2023-04-24T08:54:59;22.60;46.90
15983;DHT22;14442;50.196;8.096;2023-04-24T08:57:26;22.60;46.80
15983;DHT22;14442;50.196;8.096;2023-04-24T08:59:54;22.60;46.80
15983;DHT22;14442;50.196;8.096;2023-04-24T09:02:22;22.60;46.70
15983;DHT22;14442;50.196;8.096;2023-04-24T09:04:49;22.60;46.70
15983;DHT22;14442;50.196;8.096;2023-04-24T09:07:19;22.60;46.50
15983;DHT22;14442;50.196;8.096;2023-04-24T09:09:46;22.60;46.50
15983;DHT22;14442;50.196;8.096;2023-04-24T09:12:14;22.70;46.60
15983;DHT22;14442;50.196;8.096;2023-04-24T09:14:41;22.70;46.50
15983;DHT22;14442;50.196;8.096;2023-04-24T09:17:10;22.70;46.50
15983;DHT22;14442;50.196;8.096;2023-04-24T09:19:37;22.80;46.60
15983;DHT22;14442;50.196;8.096;2023-04-24T09:22:04;22.80;46.70
15983;DHT22;14442;50.196;8.096;2023-04-24T09:24:33;22.90;46.70
15983;DHT22;14442;50.196;8.096;2023-04-24T09:27:01;22.90;46.80
15983;DHT22;14442;50.196;8.096;2023-04-24T09:29:28;23.00;46.90
15983;DHT22;14442;50.196;8.096;2023-04-24T09:31:55;23.00;46.90
15983;DHT22;14442;50.196;8.096;2023-04-24T09:34:22;23.00;46.90
15983;DHT22;14442;50.196;8.096;2023-04-24T09:36:49;23.00;46.90
15983;DHT22;14442;50.196;8.096;2023-04-24T09:39:17;23.10;46.90
15983;DHT22;14442;50.196;8.096;2023-04-24T09:41:49;23.10;46.90
15983;DHT22;14442;50.196;8.096;2023-04-24T09:44:18;23.10;46.90
15983;DHT22;14442;50.196;8.096;2023-04-24T09:46:50;23.10;46.90
15983;DHT22;14442;50.196;8.096;2023-04-24T09:49:23;23.20;47.00
15983;DHT22;14442;50.196;8.096;2023-04-24T09:51:50;23.10;47.00
15983;DHT22;14442;50.196;8.096;2023-04-24T09:54:18;23.10;47.00
15983;DHT22;14442;50.196;8.096;2023-04-24T09:56:48;23.20;47.10
15983;DHT22;14442;50.196;8.096;2023-04-24T09:59:17;23.20;46.90
15983;DHT22;14442;50.196;8.096;2023-04-24T10:01:45;23.30;46.80
15983;DHT22;14442;50.196;8.096;2023-04-24T10:04:18;23.30;46.70
15983;DHT22;14442;50.196;8.096;2023-04-24T10:06:46;23.30;46.80
15983;DHT22;14442;50.196;8.096;2023-04-24T10:09:14;23.30;46.90
15983;DHT22;14442;50.196;8.096;2023-04-24T10:11:42;23.30;46.90
15983;DHT22;14442;50.196;8.096;2023-04-24T10:14:12;23.30;47.10
15983;DHT22;14442;50.196;8.096;2023-04-24T10:16:40;23.30;47.50
15983;DHT22;14442;50.196;8.096;2023-04-24T10:19:07;23.30;47.50
15983;DHT22;14442;50.196;8.096;2023-04-24T10:21:34;23.40;47.50
15983;DHT22;14442;50.196;8.096;2023-04-24T10:24:03;23.40;47.50
15983;DHT22;14442;50.196;8.096;2023-04-24T10:26:31;23.40;47.60
15983;DHT22;14442;50.196;8.096;2023-04-24T10:28:59;23.40;47.50
15983;DHT22;14442;50.196;8.096;2023-04-24T10:31:29;23.40;47.50
15983;DHT22;14442;50.196;8.096;2023-04-24T10:33:58;23.40;47.30
15983;DHT22;14442;50.196;8.096;2023-04-24T10:36:25;23.40;47.30
15983;DHT22;14442;50.196;8.096;2023-04-24T10:38:54;23.50;47.30
15983;DHT22;14442;50.196;8.096;2023-04-24T10:41:25;23.60;47.20
15983;DHT22;14442;50.196;8.096;2023-04-24T10:44:04;23.60;47.10
15983;DHT22;14442;50.196;8.096;2023-04-24T10:46:32;23.60;47.00
15983;DHT22;14442;50.196;8.096;2023-04-24T10:48:59;23.70;46.90
15983;DHT22;14442;50.196;8.096;2023-04-24T10:51:45;23.70;46.80
15983;DHT22;14442;50.196;8.096;2023-04-24T10:54:22;23.80;46.60
15983;DHT22;14442;50.196;8.096;2023-04-24T10:56:50;23.90;46.70
15983;DHT22;14442;50.196;8.096;2023-04-24T10:59:24;23.80;46.50
15983;DHT22;14442;50.196;8.096;2023-04-24T11:01:54;23.90;46.60
15983;DHT22;14442;50.196;8.096;2023-04-24T11:04:32;23.90;46.60
15983;DHT22;14442;50.196;8.096;2023-04-24T11:07:00;23.90;46.40
15983;DHT22;14442;50.196;8.096;2023-04-24T11:09:28;23.90;46.40
15983;DHT22;14442;50.196;8.096;2023-04-24T11:12:03;24.00;46.50
15983;DHT22;14442;50.196;8.096;2023-04-24T11:14:59;24.00;46.70
15983;DHT22;14442;50.196;8.096;2023-04-24T11:17:32;24.00;46.80
15983;DHT22;14442;50.196;8.096;2023-04-24T11:20:03;24.00;46.80
15983;DHT22;14442;50.196;8.096;2023-04-24T11:22:33;24.10;46.80
15983;DHT22;14442;50.196;8.096;2023-04-24T11:25:01;24.10;46.90
15983;DHT22;14442;50.196;8.096;2023-04-24T11:27:30;24.10;46.80
15983;DHT22;14442;50.196;8.096;2023-04-24T11:30:01;24.00;46.80
15983;DHT22;14442;50.196;8.096;2023-04-24T11:32:35;24.10;46.90
15983;DHT22;14442;50.196;8.096;2023-04-24T11:35:05;24.10;46.70
15983;DHT22;14442;50.196;8.096;2023-04-24T11:37:35;24.10;46.70
15983;DHT22;14442;50.196;8.096;2023-04-24T11:40:03;24.10;46.90
15983;DHT22;14442;50.196;8.096;2023-04-24T11:42:33;24.00;46.80
15983;DHT22;14442;50.196;8.096;2023-04-24T11:45:00;24.00;47.00
15983;DHT22;14442;50.196;8.096;2023-04-24T11:47:28;23.90;47.10
15983;DHT22;14442;50.196;8.096;2023-04-24T11:49:56;23.80;47.00
15983;DHT22;14442;50.196;8.096;2023-04-24T11:52:23;23.90;46.90
15983;DHT22;14442;50.196;8.096;2023-04-24T11:54:50;24.00;46.80
15983;DHT22;14442;50.196;8.096;2023-04-24T11:57:16;24.10;46.70
15983;DHT22;14442;50.196;8.096;2023-04-24T11:59:45;24.10;46.60
15983;DHT22;14442;50.196;8.096;2023-04-24T12:02:20;24.10;46.20
15983;DHT22;14442;50.196;8.096;2023-04-24T12:04:47;24.20;46.30
15983;DHT22;14442;50.196;8.096;2023-04-24T12:07:15;24.20;46.40
15983;DHT22;14442;50.196;8.096;2023-04-24T12:09:43;24.20;46.40
15983;DHT22;14442;50.196;8.096;2023-04-24T12:12:11;24.30;46.30
15983;DHT22;14442;50.196;8.096;2023-04-24T12:14:47;24.30;46.30
15983;DHT22;14442;50.196;8.096;2023-04-24T12:17:14;24.30;46.20
15983;DHT22;14442;50.196;8.096;2023-04-24T12:19:46;24.40;46.10
15983;DHT22;14442;50.196;8.096;2023-04-24T12:22:14;24.40;46.00
15983;DHT22;14442;50.196;8.096;2023-04-24T12:25:00;24.50;45.80
15983;DHT22;14442;50.196;8.096;2023-04-24T12:27:30;24.60;45.80
15983;DHT22;14442;50.196;8.096;2023-04-24T12:29:59;24.60;45.60
15983;DHT22;14442;50.196;8.096;2023-04-24T12:32:25;24.60;45.60
15983;DHT22;14442;50.196;8.096;2023-04-24T12:34:53;24.60;45.20
15983;DHT22;14442;50.196;8.096;2023-04-24T12:37:23;24.60;45.40
15983;DHT22;14442;50.196;8.096;2023-04-24T12:40:01;24.70;45.50
15983;DHT22;14442;50.196;8.096;2023-04-24T12:42:29;24.70;45.50
15983;DHT22;14442;50.196;8.096;2023-04-24T12:44:57;24.50;45.50
15983;DHT22;14442;50.196;8.096;2023-04-24T12:47:25;24.50;45.60
15983;DHT22;14442;50.196;8.096;2023-04-24T12:49:51;24.50;46.00
15983;DHT22;14442;50.196;8.096;2023-04-24T12:52:18;24.40;45.90
15983;DHT22;14442;50.196;8.096;2023-04-24T12:54:47;24.40;45.70
15983;DHT22;14442;50.196;8.096;2023-04-24T12:57:14;24.30;45.90
15983;DHT22;14442;50.196;8.096;2023-04-24T12:59:41;24.40;45.80
15983;DHT22;14442;50.196;8.096;2023-04-24T13:02:07;24.40;45.70
15983;DHT22;14442;50.196;8.096;2023-04-24T13:04:35;24.50;45.90
15983;DHT22;14442;50.196;8.096;2023-04-24T13:07:02;24.50;45.80
15983;DHT22;14442;50.196;8.096;2023-04-24T13:09:30;24.60;46.40
15983;DHT22;14442;50.196;8.096;2023-04-24T13:11:58;24.60;45.80
15983;DHT22;14442;50.196;8.096;2023-04-24T13:14:26;24.50;45.80
15983;DHT22;14442;50.196;8.096;2023-04-24T13:16:52;24.50;45.90
15983;DHT22;14442;50.196;8.096;2023-04-24T13:19:19;24.50;45.80
15983;DHT22;14442;50.196;8.096;2023-04-24T13:21:46;24.60;45.90
15983;DHT22;14442;50.196;8.096;2023-04-24T13:24:12;24.70;45.90
15983;DHT22;14442;50.196;8.096;2023-04-24T13:26:41;24.70;45.80
15983;DHT22;14442;50.196;8.096;2023-04-24T13:29:09;24.70;45.80
15983;DHT22;14442;50.196;8.096;2023-04-24T13:31:36;24.70;45.90
15983;DHT22;14442;50.196;8.096;2023-04-24T13:34:03;24.70;46.00
15983;DHT22;14442;50.196;8.096;2023-04-24T13:36:29;24.60;46.00
15983;DHT22;14442;50.196;8.096;2023-04-24T13:38:57;24.70;46.30
15983;DHT22;14442;50.196;8.096;2023-04-24T13:41:24;24.70;46.30
15983;DHT22;14442;50.196;8.096;2023-04-24T13:43:50;24.80;46.40
15983;DHT22;14442;50.196;8.096;2023-04-24T13:46:18;24.80;46.30
15983;DHT22;14442;50.196;8.096;2023-04-24T13:48:45;24.80;46.40
15983;DHT22;14442;50.196;8.096;2023-04-24T13:51:12;24.70;46.50
15983;DHT22;14442;50.196;8.096;2023-04-24T13:53:38;24.70;46.60
15983;DHT22;14442;50.196;8.096;2023-04-24T13:56:05;24.60;46.50
15983;DHT22;14442;50.196;8.096;2023-04-24T13:58:33;24.60;46.50
15983;DHT22;14442;50.196;8.096;2023-04-24T14:00:59;24.60;46.40
15983;DHT22;14442;50.196;8.096;2023-04-24T14:03:27;24.60;46.40
15983;DHT22;14442;50.196;8.096;2023-04-24T14:05:54;24.60;46.40
15983;DHT22;14442;50.196;8.096;2023-04-24T14:08:21;24.50;46.30
15983;DHT22;14442;50.196;8.096;2023-04-24T14:10:47;24.50;46.30
15983;DHT22;14442;50.196;8.096;2023-04-24T14:13:14;24.50;46.30
15983;DHT22;14442;50.196;8.096;2023-04-24T14:15:41;24.60;46.30
15983;DHT22;14442;50.196;8.096;2023-04-24T14:18:08;24.60;46.20
15983;DHT22;14442;50.196;8.096;2023-04-24T14:20:36;24.60;46.20
15983;DHT22;14442;50.196;8.096;2023-04-24T14:23:03;24.60;46.00
15983;DHT22;14442;50.196;8.096;2023-04-24T14:25:30;24.50;46.00
15983;DHT22;14442;50.196;8.096;2023-04-24T14:27:56;24.50;46.00
15983;DHT22;14442;50.196;8.096;2023-04-24T14:30:23;24.50;46.20
15983;DHT22;14442;50.196;8.096;2023-04-24T14:32:50;24.50;46.30
15983;DHT22;14442;50.196;8.096;2023-04-24T14:35:16;24.50;46.50
15983;DHT22;14442;50.196;8.096;2023-04-24T14:37:44;24.50;46.80
15983;DHT22;14442;50.196;8.096;2023-04-24T14:40:11;24.50;46.90
15983;DHT22;14442;50.196;8.096;2023-04-24T14:42:38;24.50;47.00
15983;DHT22;14442;50.196;8.096;2023-04-24T14:45:05;24.50;47.20
15983;DHT22;14442;50.196;8.096;2023-04-24T14:47:33;24.50;47.20
15983;DHT22;14442;50.196;8.096;2023-04-24T14:50:00;24.50;47.30
15983;DHT22;14442;50.196;8.096;2023-04-24T14:52:26;24.40;47.00
15983;DHT22;14442;50.196;8.096;2023-04-24T14:54:54;24.30;46.60
15983;DHT22;14442;50.196;8.096;2023-04-24T14:57:21;24.30;46.60
15983;DHT22;14442;50.196;8.096;2023-04-24T14:59:48;24.30;46.70
15983;DHT22;14442;50.196;8.096;2023-04-24T15:02:15;24.30;46.80
15983;DHT22;14442;50.196;8.096;2023-04-24T15:04:41;24.30;46.70
15983;DHT22;14442;50.196;8.096;2023-04-24T15:07:08;24.30;46.70
15983;DHT22;14442;50.196;8.096;2023-04-24T15:09:35;24.30;46.40
15983;DHT22;14442;50.196;8.096;2023-04-24T15:12:03;24.30;46.40
15983;DHT22;14442;50.196;8.096;2023-04-24T15:14:29;24.30;46.40
15983;DHT22;14442;50.196;8.096;2023-04-24T15:16:56;24.30;46.30
15983;DHT22;14442;50.196;8.096;2023-04-24T15:19:23;24.30;46.20
15983;DHT22;14442;50.196;8.096;2023-04-24T15:21:49;24.30;46.30
15983;DHT22;14442;50.196;8.096;2023-04-24T15:24:16;24.30;46.20
15983;DHT22;14442;50.196;8.096;2023-04-24T15:26:42;24.40;46.20
15983;DHT22;14442;50.196;8.096;2023-04-24T15:29:10;24.40;46.10
15983;DHT22;14442;50.196;8.096;2023-04-24T15:31:37;24.50;46.20
15983;DHT22;14442;50.196;8.096;2023-04-24T15:34:05;24.50;46.10